Time;durP1;ratioP1;P1;durP2;ratioP2;P2;SDS_P1;SDS_P2;PMS_P1;PMS_P2;Temp;Humidity;BMP_temperature;BMP_pressure;BME280_temperature;BME280_humidity;BME280_pressure;Samples;Min_cycle;Max_cycle;Signal;HPM_P1;HPM_P2
2022/03/30 00:00:39;;;;;;;25.98;13.98;;;5.70;99.90;;;;;;4960840;28;20117;-57
2022/03/30 00:03:05;;;;;;;33.78;14.38;;;5.70;99.90;;;;;;4959919;28;20412;-57
2022/03/30 00:05:31;;;;;;;30.50;15.00;;;5.70;99.90;;;;;;4961349;29;20043;-57
2022/03/30 00:07:57;;;;;;;30.40;13.90;;;5.70;99.90;;;;;;4958454;29;20051;-56
2022/03/30 00:10:22;;;;;;;31.90;14.52;;;5.70;99.90;;;;;;4960978;29;20039;-57
2022/03/30 00:12:48;;;;;;;24.98;14.05;;;5.60;99.90;;;;;;4960246;28;20078;-58
2022/03/30 00:15:16;;;;;;;26.88;13.02;;;5.70;99.90;;;;;;4960058;28;20039;-57
2022/03/30 00:17:43;;;;;;;34.75;14.27;;;5.80;99.90;;;;;;4960536;28;20050;-57
2022/03/30 00:20:10;;;;;;;30.60;14.80;;;5.80;99.90;;;;;;4959795;28;20044;-57
2022/03/30 00:22:35;;;;;;;31.17;13.60;;;5.80;99.90;;;;;;4963450;28;20054;-57
2022/03/30 00:25:01;;;;;;;30.88;14.02;;;5.80;99.90;;;;;;4963323;29;20043;-57
2022/03/30 00:27:27;;;;;;;25.08;13.45;;;5.80;99.90;;;;;;4964747;29;20099;-57
2022/03/30 00:29:53;;;;;;;29.35;15.05;;;5.80;99.90;;;;;;4963692;28;20039;-57
2022/03/30 00:32:18;;;;;;;27.35;12.70;;;5.80;99.90;;;;;;4964152;29;20126;-57
2022/03/30 00:34:44;;;;;;;30.50;13.65;;;5.80;99.90;;;;;;4964152;29;20416;-56
2022/03/30 00:37:10;;;;;;;32.50;14.68;;;5.80;99.90;;;;;;4961883;29;20043;-58
2022/03/30 00:39:36;;;;;;;28.27;13.32;;;5.80;99.90;;;;;;4963417;29;20103;-58
2022/03/30 00:42:12;;;;;;;24.10;12.77;;;5.90;99.90;;;;;;4962985;29;20059;-58
2022/03/30 00:44:38;;;;;;;31.15;14.32;;;5.90;99.90;;;;;;4964559;28;20054;-58
2022/03/30 00:47:15;;;;;;;30.73;13.48;;;5.90;99.90;;;;;;4963424;28;20043;-58
2022/03/30 00:49:41;;;;;;;27.88;13.90;;;5.90;99.90;;;;;;4962200;29;20063;-58
2022/03/30 00:52:08;;;;;;;26.08;12.57;;;5.90;99.90;;;;;;4964172;28;20048;-58
2022/03/30 00:54:34;;;;;;;29.52;12.63;;;5.90;99.90;;;;;;4945901;29;20075;-58
2022/03/30 00:57:01;;;;;;;26.38;13.27;;;5.90;99.90;;;;;;4964307;28;20403;-58
2022/03/30 00:59:27;;;;;;;29.70;13.65;;;5.90;99.90;;;;;;4961854;29;20521;-58
2022/03/30 01:01:53;;;;;;;29.50;13.32;;;6.00;99.90;;;;;;4963721;29;20115;-58
2022/03/30 01:04:19;;;;;;;29.17;13.50;;;6.10;99.90;;;;;;4962185;29;20055;-58
2022/03/30 01:06:45;;;;;;;29.95;13.25;;;5.90;99.90;;;;;;4963472;29;20054;-58
2022/03/30 01:09:11;;;;;;;27.45;12.48;;;6.00;99.90;;;;;;4963858;28;20047;-58
2022/03/30 01:11:37;;;;;;;28.60;12.60;;;6.10;99.90;;;;;;4962693;28;20054;-59
2022/03/30 01:14:04;;;;;;;28.58;14.15;;;6.10;99.90;;;;;;4964038;28;20079;-58
2022/03/30 01:16:30;;;;;;;30.02;14.85;;;6.00;99.90;;;;;;4962425;28;20398;-59
2022/03/30 01:19:06;;;;;;;30.02;14.52;;;5.90;99.90;;;;;;4963685;28;20075;-58
2022/03/30 01:21:33;;;;;;;25.92;14.13;;;6.00;99.90;;;;;;4961834;28;20071;-57
2022/03/30 01:23:59;;;;;;;32.10;14.48;;;5.90;99.90;;;;;;4962752;28;20051;-57
2022/03/30 01:26:25;;;;;;;31.02;13.88;;;6.00;99.90;;;;;;4963549;28;20507;-58
2022/03/30 01:28:51;;;;;;;26.77;13.45;;;6.00;99.90;;;;;;4962336;29;20058;-57
2022/03/30 01:34:01;;;;;;;29.23;13.73;;;5.90;99.90;;;;;;4961252;28;20051;-57
2022/03/30 01:36:27;;;;;;;27.98;14.10;;;5.80;99.90;;;;;;4962806;29;20053;-57
2022/03/30 01:38:52;;;;;;;29.02;14.73;;;5.80;99.90;;;;;;4963018;29;20122;-57
2022/03/30 01:41:18;;;;;;;28.38;13.82;;;5.90;99.90;;;;;;4962281;29;20103;-57
2022/03/30 01:43:44;;;;;;;28.27;13.88;;;5.80;99.90;;;;;;4961827;29;20044;-57
2022/03/30 01:46:10;;;;;;;28.88;13.30;;;5.70;99.90;;;;;;4961732;29;20051;-57
2022/03/30 01:48:35;;;;;;;29.85;12.82;;;5.80;99.90;;;;;;4963423;29;20055;-57
2022/03/30 01:51:01;;;;;;;25.27;13.95;;;5.80;99.90;;;;;;4961820;29;20043;-57
2022/03/30 01:53:27;;;;;;;26.83;13.93;;;5.80;99.90;;;;;;4963063;29;20058;-57
2022/03/30 01:55:53;;;;;;;28.48;14.70;;;5.80;99.90;;;;;;4962628;28;20053;-57
2022/03/30 01:58:19;;;;;;;28.83;12.13;;;5.80;99.90;;;;;;4961820;29;20066;-57
2022/03/30 02:00:45;;;;;;;23.27;11.90;;;6.00;99.90;;;;;;4962989;29;20039;-57
2022/03/30 02:03:12;;;;;;;16.48;6.55;;;6.10;99.90;;;;;;4961863;28;20047;-57
2022/03/30 02:05:38;;;;;;;15.98;6.18;;;6.20;99.90;;;;;;4963042;28;20043;-57
2022/03/30 02:08:04;;;;;;;11.50;4.80;;;6.20;99.90;;;;;;4961714;28;20043;-57
2022/03/30 02:10:31;;;;;;;10.02;4.53;;;6.20;99.90;;;;;;4962647;28;20047;-57
2022/03/30 02:12:58;;;;;;;10.05;4.43;;;6.20;99.90;;;;;;4962248;28;20047;-57
2022/03/30 02:15:24;;;;;;;10.82;3.40;;;6.20;99.90;;;;;;4961966;28;20043;-57
2022/03/30 02:17:50;;;;;;;9.88;3.22;;;6.20;99.90;;;;;;4962439;28;20043;-57
2022/03/30 02:20:16;;;;;;;10.02;2.92;;;6.30;99.90;;;;;;4961364;29;20054;-57
2022/03/30 02:22:42;;;;;;;8.82;2.70;;;6.30;99.90;;;;;;4962894;28;20039;-57
2022/03/30 02:25:09;;;;;;;6.10;2.08;;;6.20;99.90;;;;;;4959845;29;20045;-57
2022/03/30 02:27:36;;;;;;;5.22;1.40;;;6.30;99.90;;;;;;4961321;29;20051;-58
2022/03/30 02:30:02;;;;;;;4.53;1.27;;;6.20;99.90;;;;;;4961715;29;20043;-58
2022/03/30 02:32:28;;;;;;;6.28;1.30;;;6.20;99.90;;;;;;4961658;29;20039;-58
2022/03/30 02:34:54;;;;;;;3.08;1.15;;;6.10;99.90;;;;;;4962189;28;20062;-57
2022/03/30 02:37:20;;;;;;;4.82;1.15;;;6.10;99.90;;;;;;4961014;29;20047;-56
2022/03/30 02:39:46;;;;;;;5.03;1.30;;;6.10;99.90;;;;;;4962530;29;20051;-57
2022/03/30 02:42:12;;;;;;;7.60;1.13;;;6.10;99.90;;;;;;4961010;28;20125;-57
2022/03/30 02:44:37;;;;;;;2.40;0.80;;;6.10;99.90;;;;;;4961834;28;20079;-57
2022/03/30 02:47:04;;;;;;;5.53;0.93;;;6.10;99.90;;;;;;4961144;29;20043;-57
2022/03/30 02:49:30;;;;;;;4.65;0.90;;;6.10;99.90;;;;;;4961500;29;20122;-57
2022/03/30 02:51:56;;;;;;;1.83;0.70;;;6.10;99.90;;;;;;4962018;29;20139;-57
2022/03/30 02:54:24;;;;;;;3.63;0.88;;;6.10;99.90;;;;;;4960845;29;20051;-57
2022/03/30 02:56:50;;;;;;;2.72;0.70;;;6.00;99.90;;;;;;4962068;29;20055;-57
2022/03/30 02:59:15;;;;;;;2.88;0.77;;;6.00;99.90;;;;;;4960764;29;20091;-57
2022/03/30 03:01:41;;;;;;;3.30;0.80;;;6.10;99.90;;;;;;4962046;29;20047;-57
2022/03/30 03:04:07;;;;;;;2.83;0.73;;;6.10;99.90;;;;;;4961047;28;20050;-57
2022/03/30 03:06:33;;;;;;;3.38;0.73;;;6.10;99.90;;;;;;4959913;29;20146;-58
2022/03/30 03:08:59;;;;;;;5.32;0.82;;;5.80;99.90;;;;;;4960181;29;20055;-57
2022/03/30 03:11:25;;;;;;;2.58;0.75;;;5.90;99.90;;;;;;4943258;29;20295;-57
2022/03/30 03:13:51;;;;;;;1.77;0.63;;;6.00;99.90;;;;;;4961897;29;20406;-57
2022/03/30 03:16:18;;;;;;;4.60;0.80;;;5.90;99.90;;;;;;4960092;28;20044;-57
2022/03/30 03:18:45;;;;;;;2.03;0.65;;;5.80;99.90;;;;;;4961554;28;20066;-57
2022/03/30 03:21:11;;;;;;;2.80;1.10;;;5.80;99.90;;;;;;4960775;28;20063;-57
2022/03/30 03:23:37;;;;;;;2.05;0.52;;;5.90;99.90;;;;;;4961114;28;20131;-57
2022/03/30 03:26:02;;;;;;;2.45;0.68;;;5.80;99.90;;;;;;4959864;29;20126;-57
2022/03/30 03:28:28;;;;;;;2.28;0.60;;;5.80;99.90;;;;;;4960412;28;20077;-58
2022/03/30 03:30:54;;;;;;;1.25;0.60;;;5.80;99.90;;;;;;4961432;29;20066;-57
2022/03/30 03:33:20;;;;;;;3.97;0.88;;;5.80;99.90;;;;;;4960125;29;20043;-57
2022/03/30 03:35:47;;;;;;;3.40;0.70;;;5.80;99.90;;;;;;4961553;29;20063;-57
2022/03/30 03:38:13;;;;;;;1.20;0.52;;;5.80;99.90;;;;;;4960342;29;20078;-57
2022/03/30 03:40:40;;;;;;;1.88;0.50;;;5.80;99.90;;;;;;4960979;28;20047;-57
2022/03/30 03:43:06;;;;;;;0.95;0.50;;;5.70;99.90;;;;;;4959631;29;20047;-57
2022/03/30 03:45:32;;;;;;;2.83;0.60;;;5.80;99.90;;;;;;4942831;29;20054;-57
2022/03/30 03:47:58;;;;;;;3.58;0.90;;;5.90;99.90;;;;;;4960921;28;20107;-57
2022/03/30 03:50:26;;;;;;;1.08;0.60;;;5.80;99.90;;;;;;4960014;28;20067;-57
2022/03/30 03:52:52;;;;;;;2.67;0.70;;;5.80;99.90;;;;;;4961374;29;20035;-57
2022/03/30 03:55:18;;;;;;;3.42;0.80;;;5.70;99.90;;;;;;4959894;29;20106;-59
2022/03/30 03:57:43;;;;;;;3.53;0.88;;;5.70;99.90;;;;;;4960077;29;20039;-58
2022/03/30 04:00:11;;;;;;;3.50;1.00;;;5.70;99.90;;;;;;4959218;29;20134;-55
2022/03/30 04:02:37;;;;;;;3.88;1.00;;;5.70;99.90;;;;;;4960138;28;20085;-57
2022/03/30 04:05:03;;;;;;;5.07;1.13;;;5.70;99.90;;;;;;4960908;29;20083;-56
2022/03/30 04:07:29;;;;;;;3.72;1.20;;;5.70;99.90;;;;;;4960000;28;20046;-57
2022/03/30 04:09:54;;;;;;;5.35;1.40;;;5.80;99.90;;;;;;4961257;28;20048;-57
2022/03/30 04:12:20;;;;;;;2.85;1.13;;;5.70;99.90;;;;;;4959919;29;20051;-57
2022/03/30 04:14:46;;;;;;;7.60;1.33;;;5.70;99.90;;;;;;4959448;29;20055;-57
2022/03/30 04:17:12;;;;;;;6.00;1.80;;;5.70;99.90;;;;;;4959965;29;20435;-57
2022/03/30 04:19:38;;;;;;;4.03;1.70;;;5.60;99.90;;;;;;4960078;29;20111;-57
2022/03/30 04:22:04;;;;;;;10.30;2.58;;;5.60;99.90;;;;;;4960950;28;20052;-57
2022/03/30 04:24:30;;;;;;;5.35;1.77;;;5.60;99.90;;;;;;4959716;28;20054;-57
2022/03/30 04:26:56;;;;;;;5.80;1.85;;;5.50;99.90;;;;;;4960971;29;20051;-58
2022/03/30 04:29:21;;;;;;;5.10;1.40;;;5.70;99.90;;;;;;4959615;28;20087;-57
2022/03/30 04:31:47;;;;;;;3.58;1.27;;;5.50;99.90;;;;;;4960922;29;20054;-57
2022/03/30 04:34:13;;;;;;;5.40;1.35;;;5.50;99.90;;;;;;4959930;29;20351;-57
2022/03/30 04:36:39;;;;;;;4.15;1.42;;;5.50;99.90;;;;;;4960247;28;20043;-57
2022/03/30 04:39:04;;;;;;;4.70;1.52;;;5.60;99.90;;;;;;4960445;29;20426;-57
2022/03/30 04:41:30;;;;;;;3.47;1.30;;;5.40;99.90;;;;;;4926263;29;20043;-57
2022/03/30 04:43:56;;;;;;;4.82;1.50;;;5.50;99.90;;;;;;4960738;28;20075;-57
2022/03/30 04:46:22;;;;;;;4.38;1.42;;;5.30;99.90;;;;;;4957894;29;20057;-57
2022/03/30 04:48:47;;;;;;;8.98;2.30;;;5.30;99.90;;;;;;4960875;29;20051;-57
2022/03/30 04:51:13;;;;;;;4.05;1.42;;;5.30;99.90;;;;;;4959864;28;20048;-57
2022/03/30 04:53:39;;;;;;;4.25;1.50;;;5.30;99.90;;;;;;4960196;28;20043;-57
2022/03/30 04:56:05;;;;;;;5.47;1.42;;;5.30;99.90;;;;;;4959107;29;20054;-57
2022/03/30 04:58:31;;;;;;;5.13;1.50;;;5.20;99.90;;;;;;4957764;29;20051;-57
2022/03/30 05:00:57;;;;;;;4.50;1.40;;;5.30;99.90;;;;;;4960855;29;20116;-54
2022/03/30 05:03:22;;;;;;;5.25;1.58;;;5.20;99.90;;;;;;4958986;29;20047;-57
2022/03/30 05:05:48;;;;;;;4.70;1.63;;;5.20;99.90;;;;;;4960555;29;20043;-58
2022/03/30 05:08:14;;;;;;;5.13;1.40;;;5.30;99.90;;;;;;4961497;28;20074;-57
2022/03/30 05:10:40;;;;;;;6.50;1.45;;;5.30;99.90;;;;;;4963667;28;20119;-57
2022/03/30 05:13:05;;;;;;;8.13;1.77;;;5.10;99.90;;;;;;4963393;28;20095;-57
2022/03/30 05:15:32;;;;;;;4.28;1.65;;;5.10;99.90;;;;;;4962773;29;20475;-57
2022/03/30 05:18:00;;;;;;;5.38;1.50;;;5.10;99.90;;;;;;4963667;28;20047;-57
2022/03/30 05:20:26;;;;;;;28.65;16.15;;;5.10;99.90;;;;;;4962581;28;20048;-56
2022/03/30 05:22:54;;;;;;;22.17;13.27;;;5.10;99.90;;;;;;4963977;28;20318;-57
2022/03/30 05:25:20;;;;;;;24.83;13.77;;;5.00;99.90;;;;;;4962635;28;20039;-57
2022/03/30 05:27:46;;;;;;;9.10;4.05;;;5.00;99.90;;;;;;4962891;29;20130;-57
2022/03/30 05:30:13;;;;;;;10.75;3.88;;;5.00;99.90;;;;;;4963219;29;20106;-57
2022/03/30 05:32:44;;;;;;;7.95;3.05;;;5.00;99.90;;;;;;4962385;28;20046;-57
2022/03/30 05:35:10;;;;;;;6.85;2.40;;;4.90;99.90;;;;;;4963345;28;20055;-58
2022/03/30 05:37:36;;;;;;;7.03;2.63;;;5.00;99.90;;;;;;4962344;28;20050;-58
2022/03/30 05:40:04;;;;;;;6.85;1.90;;;5.00;99.90;;;;;;4963411;29;20043;-57
2022/03/30 05:42:29;;;;;;;9.63;2.05;;;4.90;99.90;;;;;;4962416;28;20546;-57
2022/03/30 05:44:55;;;;;;;5.43;1.83;;;4.90;99.90;;;;;;4961648;29;20051;-57
2022/03/30 05:47:21;;;;;;;8.35;2.47;;;4.90;99.90;;;;;;4962595;29;20070;-57
2022/03/30 05:49:47;;;;;;;9.68;4.78;;;4.90;99.90;;;;;;4962016;29;20074;-57
2022/03/30 05:52:13;;;;;;;8.65;2.90;;;4.90;99.90;;;;;;4963495;29;20095;-58
2022/03/30 05:54:39;;;;;;;9.18;3.78;;;4.90;99.90;;;;;;4961925;28;20495;-58
2022/03/30 05:57:05;;;;;;;6.50;2.97;;;4.80;99.90;;;;;;4961995;29;20054;-58
2022/03/30 05:59:37;;;;;;;9.70;3.10;;;4.80;99.90;;;;;;4962252;28;20047;-58
2022/03/30 06:02:05;;;;;;;5.95;2.85;;;4.90;99.90;;;;;;4962699;28;20407;-57
2022/03/30 06:04:30;;;;;;;7.03;2.20;;;5.00;99.90;;;;;;4962510;28;20043;-57
2022/03/30 06:06:56;;;;;;;7.75;2.83;;;5.00;99.90;;;;;;4961863;29;20569;-58
2022/03/30 06:09:22;;;;;;;7.43;2.78;;;4.90;99.90;;;;;;4961413;29;20133;-57
2022/03/30 06:11:48;;;;;;;5.90;3.25;;;4.90;99.90;;;;;;4960165;29;20074;-57
2022/03/30 06:14:14;;;;;;;7.78;4.13;;;4.90;99.90;;;;;;4961360;29;20111;-58
2022/03/30 06:16:44;;;;;;;6.55;4.03;;;5.00;99.90;;;;;;4961472;28;20063;-57
2022/03/30 06:19:10;;;;;;;10.43;3.70;;;5.10;99.90;;;;;;4961478;28;20389;-58
2022/03/30 06:21:36;;;;;;;8.40;3.10;;;5.10;99.90;;;;;;4962197;28;20045;-58
2022/03/30 06:24:02;;;;;;;13.02;4.85;;;5.10;99.90;;;;;;4960042;29;20579;-58
2022/03/30 06:26:28;;;;;;;7.82;2.60;;;5.20;99.90;;;;;;4961102;29;20058;-57
2022/03/30 06:28:54;;;;;;;7.05;2.45;;;5.20;99.90;;;;;;4961182;29;20054;-59
2022/03/30 06:31:20;;;;;;;7.45;2.60;;;5.30;99.90;;;;;;4961051;28;20031;-58
2022/03/30 06:33:47;;;;;;;8.55;3.10;;;5.30;99.90;;;;;;4957597;29;20055;-57
2022/03/30 06:36:14;;;;;;;6.80;2.42;;;5.40;99.90;;;;;;4958154;29;20051;-58
2022/03/30 06:38:42;;;;;;;6.80;2.28;;;5.40;99.90;;;;;;4924907;29;20061;-57
2022/03/30 06:41:08;;;;;;;5.35;1.95;;;5.50;99.90;;;;;;4957710;29;20146;-58
2022/03/30 06:43:36;;;;;;;6.85;2.10;;;5.50;99.90;;;;;;4956541;29;20043;-58
2022/03/30 06:46:02;;;;;;;7.63;1.92;;;5.60;99.90;;;;;;4955609;29;20083;-57
2022/03/30 06:48:30;;;;;;;7.65;2.47;;;5.60;99.90;;;;;;4958638;29;20128;-58
2022/03/30 06:50:57;;;;;;;5.63;1.90;;;5.70;99.90;;;;;;4957299;29;20411;-57
2022/03/30 06:53:23;;;;;;;6.80;2.13;;;5.70;99.90;;;;;;4958116;28;20569;-57
2022/03/30 06:55:49;;;;;;;10.73;2.63;;;5.70;99.90;;;;;;4957912;29;20302;-58
2022/03/30 06:58:14;;;;;;;5.88;2.30;;;5.80;99.90;;;;;;4957234;29;20145;-57
2022/03/30 07:00:40;;;;;;;5.75;2.10;;;5.80;99.90;;;;;;4956795;29;20058;-57
2022/03/30 07:03:06;;;;;;;7.22;2.22;;;5.90;99.90;;;;;;4956920;28;20062;-58
2022/03/30 07:05:33;;;;;;;8.20;2.20;;;6.00;99.90;;;;;;4957970;29;20391;-58
2022/03/30 07:10:42;;;;;;;10.55;2.25;;;6.00;99.90;;;;;;4957498;29;20090;-58
2022/03/30 07:13:08;;;;;;;7.15;2.30;;;6.10;99.90;;;;;;4957773;28;20050;-57
2022/03/30 07:15:34;;;;;;;8.52;2.30;;;6.10;99.90;;;;;;4956651;29;20047;-57
2022/03/30 07:18:01;;;;;;;8.07;2.10;;;6.30;99.90;;;;;;4958029;29;20078;-57
2022/03/30 07:20:30;;;;;;;12.20;3.55;;;6.30;99.90;;;;;;4955216;29;20043;-57
2022/03/30 07:22:57;;;;;;;6.55;2.13;;;6.40;99.90;;;;;;4956456;28;20039;-56
2022/03/30 07:25:24;;;;;;;6.13;2.10;;;6.30;99.90;;;;;;4957043;28;20054;-57
2022/03/30 07:27:52;;;;;;;8.70;2.20;;;6.50;99.90;;;;;;4957046;28;20098;-57
2022/03/30 07:30:19;;;;;;;8.98;1.98;;;6.40;99.90;;;;;;4956232;28;20043;-58
2022/03/30 07:32:47;;;;;;;9.05;2.10;;;6.40;99.90;;;;;;4955337;28;20140;-60
2022/03/30 07:35:16;;;;;;;6.30;1.80;;;6.50;99.90;;;;;;4957472;28;20066;-57
2022/03/30 07:37:43;;;;;;;9.07;1.98;;;6.50;99.90;;;;;;4955144;29;20900;-57
2022/03/30 07:40:12;;;;;;;6.97;1.92;;;6.50;99.90;;;;;;4957621;28;20582;-57
2022/03/30 07:42:38;;;;;;;5.53;1.85;;;6.60;99.90;;;;;;4956933;28;20099;-57
2022/03/30 07:45:05;;;;;;;8.65;1.67;;;6.60;99.90;;;;;;4956447;28;20043;-57
2022/03/30 07:47:31;;;;;;;5.75;1.23;;;6.60;99.90;;;;;;4957081;28;20146;-57
2022/03/30 07:49:58;;;;;;;5.68;1.20;;;6.50;99.90;;;;;;4954880;29;20113;-57
2022/03/30 07:52:24;;;;;;;6.00;1.55;;;6.60;99.90;;;;;;4957463;28;20136;-58
2022/03/30 07:54:52;;;;;;;6.50;1.23;;;6.70;99.90;;;;;;4956477;28;20128;-57
2022/03/30 07:57:25;;;;;;;6.05;1.20;;;6.70;99.90;;;;;;4957213;29;20051;-57
2022/03/30 07:59:51;;;;;;;7.15;1.17;;;6.80;99.90;;;;;;4956855;28;20051;-57
2022/03/30 08:02:18;;;;;;;4.13;1.38;;;6.80;99.90;;;;;;4956621;28;20043;-57
2022/03/30 08:04:44;;;;;;;8.32;1.30;;;6.80;99.90;;;;;;4956709;29;20158;-57
2022/03/30 08:07:10;;;;;;;4.00;1.30;;;6.80;99.90;;;;;;4955939;28;20107;-57
2022/03/30 08:09:36;;;;;;;6.22;1.90;;;6.90;99.90;;;;;;4957505;29;20040;-57
2022/03/30 08:12:01;;;;;;;7.18;1.23;;;6.90;99.90;;;;;;4954664;29;20629;-56
2022/03/30 08:14:28;;;;;;;7.95;1.38;;;7.00;99.90;;;;;;4957498;28;20709;-58
2022/03/30 08:16:53;;;;;;;5.63;1.20;;;7.00;99.90;;;;;;4956145;28;20059;-58
2022/03/30 08:19:19;;;;;;;4.65;1.38;;;6.90;99.90;;;;;;4956187;28;20051;-59
2022/03/30 08:24:29;;;;;;;7.22;1.08;;;7.00;99.90;;;;;;4955225;28;20058;-58
2022/03/30 08:26:55;;;;;;;5.15;0.95;;;7.00;99.90;;;;;;4957140;28;20051;-57
2022/03/30 08:29:20;;;;;;;5.88;1.75;;;7.10;99.90;;;;;;4956166;29;20070;-57
2022/03/30 08:31:48;;;;;;;3.70;0.85;;;7.10;99.90;;;;;;4956680;29;20947;-58
2022/03/30 08:34:15;;;;;;;6.15;1.15;;;7.10;99.90;;;;;;4956484;28;20496;-57
2022/03/30 08:36:42;;;;;;;5.53;0.82;;;7.10;99.90;;;;;;4956282;28;20104;-57
2022/03/30 08:39:11;;;;;;;5.30;1.23;;;7.10;99.90;;;;;;4956992;28;20070;-58
2022/03/30 08:41:43;;;;;;;4.68;1.40;;;7.20;99.90;;;;;;4955873;28;20059;-58
2022/03/30 08:44:12;;;;;;;5.93;1.88;;;7.20;99.90;;;;;;4958598;29;20055;-57
2022/03/30 08:46:38;;;;;;;9.10;1.65;;;7.20;99.90;;;;;;4959410;28;20040;-57
2022/03/30 08:49:04;;;;;;;5.10;1.30;;;7.30;99.90;;;;;;4958706;29;20193;-58
2022/03/30 08:51:32;;;;;;;6.20;1.60;;;7.20;99.90;;;;;;4960203;28;20045;-57
2022/03/30 08:53:58;;;;;;;3.63;1.00;;;7.10;99.90;;;;;;4958336;29;20122;-57
2022/03/30 08:56:24;;;;;;;3.45;1.02;;;7.00;99.90;;;;;;4960253;28;20044;-58
2022/03/30 08:58:55;;;;;;;4.72;0.98;;;7.10;99.90;;;;;;4959098;29;20055;-58
2022/03/30 09:01:22;;;;;;;3.28;0.90;;;7.20;99.90;;;;;;4960510;28;20075;-58
2022/03/30 09:03:59;;;;;;;4.05;0.90;;;7.20;99.90;;;;;;4959420;28;20042;-57
2022/03/30 09:06:47;;;;;;;5.55;0.98;;;7.40;99.90;;;;;;4951159;28;20139;-57
2022/03/30 09:09:15;;;;;;;5.65;0.90;;;7.40;99.90;;;;;;4958120;29;20083;-58
2022/03/30 09:11:40;;;;;;;5.38;1.70;;;7.60;99.90;;;;;;4959251;28;20055;-57
2022/03/30 09:14:07;;;;;;;4.60;0.90;;;7.60;99.90;;;;;;4962135;28;20115;-58
2022/03/30 09:16:45;;;;;;;5.68;1.13;;;7.70;99.90;;;;;;4961860;28;20403;-58
2022/03/30 09:19:17;;;;;;;5.93;1.00;;;7.70;99.90;;;;;;4962801;29;20051;-58
2022/03/30 09:21:48;;;;;;;4.93;1.08;;;7.70;99.90;;;;;;4963285;28;20043;-58
2022/03/30 09:24:19;;;;;;;4.18;0.93;;;7.70;99.90;;;;;;4953694;28;20079;-57
2022/03/30 09:26:45;;;;;;;4.22;1.15;;;7.80;99.90;;;;;;4944584;29;20104;-58
2022/03/30 09:29:11;;;;;;;4.20;0.90;;;7.80;99.90;;;;;;4948525;29;20562;-58
2022/03/30 09:31:42;;;;;;;6.13;1.00;;;7.80;99.90;;;;;;4963195;29;20106;-58
2022/03/30 09:34:09;;;;;;;2.97;0.90;;;7.80;99.90;;;;;;4962538;29;20055;-57
2022/03/30 09:36:38;;;;;;;5.15;1.00;;;7.80;99.90;;;;;;4962383;29;20047;-58
2022/03/30 09:39:05;;;;;;;2.90;0.70;;;7.80;99.90;;;;;;4963263;29;20115;-58
2022/03/30 09:41:51;;;;;;;4.53;1.13;;;7.80;99.90;;;;;;4960116;29;20043;-57
2022/03/30 09:44:18;;;;;;;7.03;1.08;;;7.90;99.90;;;;;;4952064;29;20039;-58
2022/03/30 09:46:57;;;;;;;4.18;1.27;;;7.80;99.90;;;;;;4952969;29;20048;-57
2022/03/30 09:49:43;;;;;;;3.60;1.02;;;7.80;99.90;;;;;;4946195;29;20052;-57
2022/03/30 09:52:14;;;;;;;5.85;1.20;;;7.90;99.90;;;;;;4943636;29;20047;-56
2022/03/30 09:54:53;;;;;;;3.00;0.90;;;8.20;99.90;;;;;;4941533;29;20047;-57
2022/03/30 09:57:42;;;;;;;4.13;1.00;;;8.30;99.90;;;;;;4943632;29;20055;-57
2022/03/30 10:00:14;;;;;;;8.95;1.63;;;8.30;99.90;;;;;;4929617;29;20064;-55
2022/03/30 10:02:47;;;;;;;4.35;1.00;;;8.40;99.90;;;;;;4942170;29;20075;-55
2022/03/30 10:05:14;;;;;;;;;;;8.30;99.90;;;;;;4958893;29;20062;-57
2022/03/30 10:07:40;;;;;;;5.38;1.00;;;8.20;99.90;;;;;;4961474;29;20338;-58
2022/03/30 10:10:12;;;;;;;3.90;0.93;;;8.10;99.90;;;;;;4962850;28;20050;-57
2022/03/30 10:12:38;;;;;;;6.20;0.90;;;8.10;99.90;;;;;;4962283;28;20036;-57
2022/03/30 10:15:05;;;;;;;4.22;1.08;;;8.10;99.90;;;;;;4960146;29;20051;-57
2022/03/30 10:17:31;;;;;;;7.18;1.17;;;8.10;99.90;;;;;;4962082;28;20069;-58
2022/03/30 10:20:02;;;;;;;4.82;1.00;;;8.00;99.90;;;;;;4960048;29;20567;-57
2022/03/30 10:23:01;;;;;;;4.65;0.90;;;8.20;99.90;;;;;;4962659;28;20047;-57
2022/03/30 10:25:50;;;;;;;4.28;0.75;;;8.20;99.90;;;;;;4961602;29;20047;-57
2022/03/30 10:28:24;;;;;;;5.43;0.80;;;8.30;99.90;;;;;;4961169;28;20047;-57
2022/03/30 10:30:55;;;;;;;2.80;0.70;;;8.20;99.90;;;;;;4961104;29;20521;-57
2022/03/30 10:33:44;;;;;;;5.80;1.02;;;8.50;99.90;;;;;;4961061;28;20066;-57
2022/03/30 10:36:27;;;;;;;9.07;1.35;;;8.50;99.90;;;;;;4961685;28;20082;-57
2022/03/30 10:39:28;;;;;;;7.32;1.25;;;8.50;99.90;;;;;;4962027;28;20050;-57
2022/03/30 10:42:09;;;;;;;6.20;1.38;;;8.20;99.90;;;;;;4882512;29;20097;-56
2022/03/30 10:44:51;;;;;;;5.32;1.02;;;8.10;99.90;;;;;;4954069;28;20047;-58
2022/03/30 10:47:24;;;;;;;4.85;1.20;;;8.20;99.90;;;;;;4961566;28;20110;-56
2022/03/30 10:49:51;;;;;;;6.55;1.30;;;8.10;99.90;;;;;;4960499;28;20039;-57
2022/03/30 10:52:41;;;;;;;11.75;3.78;;;8.30;99.90;;;;;;4960869;29;20625;-57
2022/03/30 10:55:13;;;;;;;7.85;4.07;;;8.40;99.90;;;;;;4959554;29;20094;-57
2022/03/30 10:57:50;;;;;;;6.28;2.05;;;8.40;99.90;;;;;;4959830;29;20589;-57
2022/03/30 11:00:18;;;;;;;6.78;1.45;;;8.40;99.90;;;;;;4960246;28;20047;-56
2022/03/30 11:02:44;;;;;;;5.53;1.05;;;8.50;99.90;;;;;;4960625;28;20319;-58
2022/03/30 11:05:12;;;;;;;3.90;0.88;;;8.50;99.90;;;;;;4961134;28;20098;-58
2022/03/30 11:07:38;;;;;;;5.05;1.10;;;8.60;99.90;;;;;;4960380;28;20039;-58
2022/03/30 11:10:14;;;;;;;7.05;1.02;;;8.60;99.90;;;;;;4961811;28;20079;-58
2022/03/30 11:13:12;;;;;;;2.72;0.80;;;8.70;99.90;;;;;;4960801;28;20479;-57
2022/03/30 11:16:11;;;;;;;6.80;1.02;;;8.60;99.90;;;;;;4941748;28;20066;-58
2022/03/30 11:19:02;;;;;;;8.60;1.20;;;8.80;99.90;;;;;;4942923;29;20087;-58
2022/03/30 11:21:29;;;;;;;4.40;0.93;;;9.00;99.90;;;;;;4961160;28;20039;-58
2022/03/30 11:23:56;;;;;;;6.60;1.08;;;9.00;99.90;;;;;;4958830;29;20083;-58
2022/03/30 11:26:49;;;;;;;7.20;1.35;;;9.00;99.90;;;;;;4960054;28;20054;-59
2022/03/30 11:29:47;;;;;;;4.55;1.10;;;8.60;99.90;;;;;;4958645;28;20047;-58
2022/03/30 11:32:37;;;;;;;4.75;1.08;;;8.50;99.90;;;;;;4960385;28;20047;-58
2022/03/30 11:35:06;;;;;;;4.15;1.02;;;8.50;99.90;;;;;;4952274;29;20051;-58
2022/03/30 11:37:38;;;;;;;8.15;1.40;;;8.70;99.90;;;;;;4959708;29;20091;-58
2022/03/30 11:40:15;;;;;;;6.20;1.10;;;8.90;99.90;;;;;;4959947;28;20113;-58
2022/03/30 11:42:51;;;;;;;3.97;1.00;;;9.10;99.90;;;;;;4960412;28;20035;-58
2022/03/30 11:45:20;;;;;;;6.90;1.13;;;9.00;99.90;;;;;;4960131;28;20051;-58
2022/03/30 11:47:55;;;;;;;4.85;0.88;;;9.00;99.90;;;;;;4960702;28;20079;-58
2022/03/30 11:50:29;;;;;;;3.90;0.85;;;9.00;99.90;;;;;;4959743;28;20500;-58
2022/03/30 11:52:56;;;;;;;5.70;1.38;;;9.00;99.90;;;;;;4959313;29;20047;-57
2022/03/30 11:55:23;;;;;;;6.25;1.10;;;9.20;99.90;;;;;;4960249;28;20043;-58
2022/03/30 11:57:51;;;;;;;3.10;0.90;;;9.10;99.90;;;;;;4960352;28;20105;-58
2022/03/30 12:00:17;;;;;;;5.80;1.23;;;9.20;99.90;;;;;;4961189;28;20031;-57
2022/03/30 12:02:45;;;;;;;6.72;1.27;;;9.20;99.90;;;;;;4959646;29;20058;-55
2022/03/30 12:05:10;;;;;;;4.97;1.10;;;9.00;99.90;;;;;;4960838;28;20058;-57
2022/03/30 12:07:38;;;;;;;9.38;1.23;;;8.80;99.90;;;;;;4958183;29;20050;-58
2022/03/30 12:10:08;;;;;;;8.55;0.90;;;8.90;99.90;;;;;;4959516;29;20072;-58
2022/03/30 12:12:36;;;;;;;7.43;1.20;;;8.80;99.90;;;;;;4946240;28;20043;-57
2022/03/30 12:15:13;;;;;;;5.95;1.00;;;8.70;99.90;;;;;;4950873;29;20046;-57
2022/03/30 12:17:40;;;;;;;7.60;1.42;;;8.70;99.90;;;;;;4945065;29;20080;-59
2022/03/30 12:20:08;;;;;;;4.78;1.00;;;8.50;99.90;;;;;;4944220;29;20048;-58
2022/03/30 12:22:35;;;;;;;5.13;1.30;;;8.50;99.90;;;;;;4944153;29;20091;-58
2022/03/30 12:25:01;;;;;;;4.18;0.90;;;8.60;99.90;;;;;;4953144;29;20046;-57
2022/03/30 12:27:27;;;;;;;4.45;1.00;;;8.50;99.90;;;;;;4955237;29;20047;-58
2022/03/30 12:29:56;;;;;;;5.47;1.13;;;8.60;99.90;;;;;;4952836;29;20099;-58
2022/03/30 12:32:23;;;;;;;8.07;1.42;;;8.40;99.90;;;;;;4951208;29;20188;-58
2022/03/30 12:35:04;;;;;;;7.10;1.10;;;8.50;99.90;;;;;;4954117;29;20059;-58
2022/03/30 12:37:30;;;;;;;5.38;1.15;;;8.50;99.90;;;;;;4946419;29;20056;-58
2022/03/30 12:40:11;;;;;;;3.83;1.00;;;8.70;99.90;;;;;;4945042;29;20051;-58
2022/03/30 12:42:37;;;;;;;6.60;1.20;;;8.90;99.90;;;;;;4944507;29;20102;-55
2022/03/30 12:45:10;;;;;;;5.03;0.90;;;9.20;99.90;;;;;;4942719;29;20082;-58
2022/03/30 12:47:46;;;;;;;5.55;0.88;;;9.10;99.90;;;;;;4944873;29;20039;-58
2022/03/30 12:50:40;;;;;;;5.85;1.08;;;9.20;99.90;;;;;;4942533;29;20047;-57
2022/03/30 12:53:20;;;;;;;4.30;1.02;;;9.40;99.90;;;;;;4940994;29;20083;-58
2022/03/30 12:55:51;;;;;;;7.13;1.25;;;9.50;99.90;;;;;;4944326;29;20427;-58
2022/03/30 12:58:20;;;;;;;4.43;1.08;;;9.90;99.90;;;;;;4943531;29;20047;-59
2022/03/30 13:00:51;;;;;;;3.63;0.90;;;10.10;99.90;;;;;;4944807;29;20071;-59
2022/03/30 13:03:19;;;;;;;4.28;1.10;;;10.00;99.90;;;;;;4941860;29;20075;-59
2022/03/30 13:05:47;;;;;;;5.90;1.00;;;9.80;99.90;;;;;;4963305;29;20044;-59
2022/03/30 13:08:15;;;;;;;7.55;1.77;;;9.70;99.90;;;;;;4961720;29;20055;-58